sensor_id;sensor_type;location;lat;lon;timestamp;pressure;altitude;pressure_sealevel;temperature;humidity
11339;BME280;5724;42.684;23.252;2022-12-31T00:01:43;95349.09;;;5.27;91.05
11339;BME280;5724;42.684;23.252;2022-12-31T00:04:08;95347.59;;;5.35;90.94
11339;BME280;5724;42.684;23.252;2022-12-31T00:06:34;95355.34;;;5.41;90.27
11339;BME280;5724;42.684;23.252;2022-12-31T00:09:03;95343.38;;;5.42;90.43
11339;BME280;5724;42.684;23.252;2022-12-31T00:11:30;95347.59;;;5.49;90.60
11339;BME280;5724;42.684;23.252;2022-12-31T00:13:56;95346.78;;;5.48;90.35
11339;BME280;5724;42.684;23.252;2022-12-31T00:16:27;95334.66;;;5.45;89.80
11339;BME280;5724;42.684;23.252;2022-12-31T00:18:55;95352.53;;;5.60;89.29
11339;BME280;5724;42.684;23.252;2022-12-31T00:21:21;95357.63;;;5.62;88.88
11339;BME280;5724;42.684;23.252;2022-12-31T00:23:47;95363.06;;;5.62;89.16
11339;BME280;5724;42.684;23.252;2022-12-31T00:26:15;95355.13;;;5.65;88.40
11339;BME280;5724;42.684;23.252;2022-12-31T00:28:41;95361.25;;;5.71;88.61
11339;BME280;5724;42.684;23.252;2022-12-31T00:31:15;95363.66;;;5.72;88.08
11339;BME280;5724;42.684;23.252;2022-12-31T00:33:42;95365.56;;;5.72;87.74
11339;BME280;5724;42.684;23.252;2022-12-31T00:36:19;95366.84;;;5.74;88.22
11339;BME280;5724;42.684;23.252;2022-12-31T00:38:47;95375.41;;;5.82;87.75
11339;BME280;5724;42.684;23.252;2022-12-31T00:41:14;95369.16;;;5.81;87.50
11339;BME280;5724;42.684;23.252;2022-12-31T00:43:40;95375.53;;;5.90;87.51
11339;BME280;5724;42.684;23.252;2022-12-31T00:46:06;95378.78;;;5.87;87.35
11339;BME280;5724;42.684;23.252;2022-12-31T00:48:33;95377.31;;;5.95;87.11
11339;BME280;5724;42.684;23.252;2022-12-31T00:50:59;95376.59;;;6.03;86.75
11339;BME280;5724;42.684;23.252;2022-12-31T00:53:26;95360.72;;;5.96;86.20
11339;BME280;5724;42.684;23.252;2022-12-31T00:55:58;95380.22;;;5.98;85.95
11339;BME280;5724;42.684;23.252;2022-12-31T00:58:24;95389.84;;;6.05;85.52
11339;BME280;5724;42.684;23.252;2022-12-31T01:00:49;95395.19;;;5.82;86.22
11339;BME280;5724;42.684;23.252;2022-12-31T01:03:15;95382.41;;;5.69;87.54
11339;BME280;5724;42.684;23.252;2022-12-31T01:05:40;95396.28;;;5.67;88.96
11339;BME280;5724;42.684;23.252;2022-12-31T01:08:06;95395.56;;;5.75;87.84
11339;BME280;5724;42.684;23.252;2022-12-31T01:10:31;95394.69;;;5.66;87.56
11339;BME280;5724;42.684;23.252;2022-12-31T01:13:15;95391.88;;;5.58;89.20
11339;BME280;5724;42.684;23.252;2022-12-31T01:15:40;95402.13;;;5.61;88.83
11339;BME280;5724;42.684;23.252;2022-12-31T01:18:07;95395.19;;;5.55;89.00
11339;BME280;5724;42.684;23.252;2022-12-31T01:20:42;95393.97;;;5.47;89.71
11339;BME280;5724;42.684;23.252;2022-12-31T01:23:09;95409.44;;;5.46;88.54
11339;BME280;5724;42.684;23.252;2022-12-31T01:25:39;95409.81;;;5.40;89.26
11339;BME280;5724;42.684;23.252;2022-12-31T01:28:07;95398.69;;;5.41;89.35
11339;BME280;5724;42.684;23.252;2022-12-31T01:30:33;95416.53;;;5.29;90.06
11339;BME280;5724;42.684;23.252;2022-12-31T01:32:58;95414.69;;;5.10;90.88
11339;BME280;5724;42.684;23.252;2022-12-31T01:35:24;95407.09;;;5.12;91.22
11339;BME280;5724;42.684;23.252;2022-12-31T01:38:08;95408.28;;;5.20;90.53
11339;BME280;5724;42.684;23.252;2022-12-31T01:40:37;95405.88;;;5.18;90.21
11339;BME280;5724;42.684;23.252;2022-12-31T01:43:17;95413.50;;;5.16;89.71
11339;BME280;5724;42.684;23.252;2022-12-31T01:45:49;95405.97;;;5.13;90.34
11339;BME280;5724;42.684;23.252;2022-12-31T01:48:23;95419.09;;;5.06;91.19
11339;BME280;5724;42.684;23.252;2022-12-31T01:50:51;95412.69;;;5.02;90.98
11339;BME280;5724;42.684;23.252;2022-12-31T01:53:18;95413.25;;;4.99;91.07
11339;BME280;5724;42.684;23.252;2022-12-31T01:55:54;95413.34;;;4.94;92.07
11339;BME280;5724;42.684;23.252;2022-12-31T01:58:29;95421.06;;;4.87;92.67
11339;BME280;5724;42.684;23.252;2022-12-31T02:00:56;95415.16;;;4.66;93.46
11339;BME280;5724;42.684;23.252;2022-12-31T02:03:24;95420.88;;;4.65;93.46
11339;BME280;5724;42.684;23.252;2022-12-31T02:05:58;95420.44;;;4.57;94.22
11339;BME280;5724;42.684;23.252;2022-12-31T02:08:27;95421.03;;;4.54;93.72
11339;BME280;5724;42.684;23.252;2022-12-31T02:10:52;95429.56;;;4.62;94.32
11339;BME280;5724;42.684;23.252;2022-12-31T02:13:18;95426.19;;;4.70;94.47
11339;BME280;5724;42.684;23.252;2022-12-31T02:16:09;95421.09;;;4.68;94.44
11339;BME280;5724;42.684;23.252;2022-12-31T02:18:48;95423.66;;;4.59;95.11
11339;BME280;5724;42.684;23.252;2022-12-31T02:21:38;95427.69;;;4.43;96.42
11339;BME280;5724;42.684;23.252;2022-12-31T02:30:14;95431.41;;;4.66;94.89
11339;BME280;5724;42.684;23.252;2022-12-31T02:32:47;95424.69;;;4.64;94.78
11339;BME280;5724;42.684;23.252;2022-12-31T02:37:47;95435.84;;;4.76;94.56
11339;BME280;5724;42.684;23.252;2022-12-31T02:40:16;95437.47;;;4.77;94.64
11339;BME280;5724;42.684;23.252;2022-12-31T02:42:43;95440.00;;;4.87;94.11
11339;BME280;5724;42.684;23.252;2022-12-31T02:45:11;95444.69;;;4.81;94.25
11339;BME280;5724;42.684;23.252;2022-12-31T02:50:42;95448.94;;;4.87;93.89
11339;BME280;5724;42.684;23.252;2022-12-31T03:01:40;95441.31;;;4.89;92.14
11339;BME280;5724;42.684;23.252;2022-12-31T03:04:27;95442.63;;;4.92;92.41
11339;BME280;5724;42.684;23.252;2022-12-31T03:06:58;95436.13;;;4.93;92.60
11339;BME280;5724;42.684;23.252;2022-12-31T03:09:24;95423.25;;;4.85;93.10
11339;BME280;5724;42.684;23.252;2022-12-31T03:11:49;95430.03;;;4.82;93.04
11339;BME280;5724;42.684;23.252;2022-12-31T03:14:33;95417.22;;;4.74;91.74
11339;BME280;5724;42.684;23.252;2022-12-31T03:16:59;95424.22;;;4.75;92.42
11339;BME280;5724;42.684;23.252;2022-12-31T03:19:24;95424.13;;;4.80;92.00
11339;BME280;5724;42.684;23.252;2022-12-31T03:22:11;95426.63;;;4.77;91.90
11339;BME280;5724;42.684;23.252;2022-12-31T03:24:58;95425.84;;;4.76;91.96
11339;BME280;5724;42.684;23.252;2022-12-31T03:27:43;95431.53;;;4.75;92.67
11339;BME280;5724;42.684;23.252;2022-12-31T03:30:10;95435.25;;;4.79;92.12
11339;BME280;5724;42.684;23.252;2022-12-31T03:32:36;95422.56;;;4.60;91.64
11339;BME280;5724;42.684;23.252;2022-12-31T03:35:02;95428.09;;;4.69;91.97
11339;BME280;5724;42.684;23.252;2022-12-31T03:37:28;95429.19;;;4.68;92.00
11339;BME280;5724;42.684;23.252;2022-12-31T03:39:53;95431.63;;;4.70;92.41
11339;BME280;5724;42.684;23.252;2022-12-31T03:42:18;95427.81;;;4.52;92.79
11339;BME280;5724;42.684;23.252;2022-12-31T03:44:44;95428.47;;;4.63;93.04
11339;BME280;5724;42.684;23.252;2022-12-31T03:47:09;95429.38;;;4.58;93.23
11339;BME280;5724;42.684;23.252;2022-12-31T03:49:35;95429.81;;;4.46;92.92
11339;BME280;5724;42.684;23.252;2022-12-31T03:52:00;95438.66;;;4.33;92.72
11339;BME280;5724;42.684;23.252;2022-12-31T03:54:27;95429.38;;;4.20;93.46
11339;BME280;5724;42.684;23.252;2022-12-31T03:56:53;95447.16;;;4.26;92.83
11339;BME280;5724;42.684;23.252;2022-12-31T03:59:18;95452.09;;;4.19;92.67
11339;BME280;5724;42.684;23.252;2022-12-31T04:01:44;95447.56;;;4.15;92.94
11339;BME280;5724;42.684;23.252;2022-12-31T04:04:10;95453.09;;;4.05;93.29
11339;BME280;5724;42.684;23.252;2022-12-31T04:06:36;95449.72;;;3.94;94.89
11339;BME280;5724;42.684;23.252;2022-12-31T04:09:01;95450.72;;;3.79;96.45
11339;BME280;5724;42.684;23.252;2022-12-31T04:11:27;95460.44;;;3.80;95.71
11339;BME280;5724;42.684;23.252;2022-12-31T04:13:52;95461.28;;;3.76;96.12
11339;BME280;5724;42.684;23.252;2022-12-31T04:16:17;95458.06;;;3.73;96.58
11339;BME280;5724;42.684;23.252;2022-12-31T04:18:43;95456.69;;;3.76;96.71
11339;BME280;5724;42.684;23.252;2022-12-31T04:21:08;95457.59;;;3.66;98.08
11339;BME280;5724;42.684;23.252;2022-12-31T04:23:34;95463.38;;;3.60;98.98
11339;BME280;5724;42.684;23.252;2022-12-31T04:25:59;95458.19;;;3.63;99.02
11339;BME280;5724;42.684;23.252;2022-12-31T04:28:25;95463.38;;;3.60;98.36
11339;BME280;5724;42.684;23.252;2022-12-31T04:30:50;95466.19;;;3.50;99.85
11339;BME280;5724;42.684;23.252;2022-12-31T04:33:16;95472.09;;;3.52;99.69
11339;BME280;5724;42.684;23.252;2022-12-31T04:35:41;95470.72;;;3.30;100.00
11339;BME280;5724;42.684;23.252;2022-12-31T04:38:07;95469.09;;;3.29;100.00
11339;BME280;5724;42.684;23.252;2022-12-31T04:40:32;95469.03;;;3.34;100.00
11339;BME280;5724;42.684;23.252;2022-12-31T04:42:57;95473.25;;;3.45;100.00
11339;BME280;5724;42.684;23.252;2022-12-31T04:45:23;95479.69;;;3.50;100.00
11339;BME280;5724;42.684;23.252;2022-12-31T04:47:48;95482.63;;;3.53;100.00
11339;BME280;5724;42.684;23.252;2022-12-31T04:50:14;95485.03;;;3.55;100.00
11339;BME280;5724;42.684;23.252;2022-12-31T04:52:39;95484.75;;;3.56;100.00
11339;BME280;5724;42.684;23.252;2022-12-31T04:55:05;95477.97;;;3.59;100.00
11339;BME280;5724;42.684;23.252;2022-12-31T04:57:30;95469.34;;;3.57;99.71
11339;BME280;5724;42.684;23.252;2022-12-31T04:59:56;95498.16;;;3.66;99.80
11339;BME280;5724;42.684;23.252;2022-12-31T05:02:21;95478.19;;;3.62;99.36
11339;BME280;5724;42.684;23.252;2022-12-31T05:04:47;95487.72;;;3.55;100.00
11339;BME280;5724;42.684;23.252;2022-12-31T05:07:12;95494.56;;;3.47;100.00
11339;BME280;5724;42.684;23.252;2022-12-31T05:09:38;95490.69;;;3.58;100.00
11339;BME280;5724;42.684;23.252;2022-12-31T05:12:03;95497.41;;;3.61;99.68
11339;BME280;5724;42.684;23.252;2022-12-31T05:14:29;95497.09;;;3.67;99.52
11339;BME280;5724;42.684;23.252;2022-12-31T05:16:54;95506.50;;;3.70;100.00
11339;BME280;5724;42.684;23.252;2022-12-31T05:19:20;95504.53;;;3.76;99.51
11339;BME280;5724;42.684;23.252;2022-12-31T05:21:45;95513.44;;;3.76;99.77
11339;BME280;5724;42.684;23.252;2022-12-31T05:24:31;95512.91;;;3.79;99.19
11339;BME280;5724;42.684;23.252;2022-12-31T05:26:56;95518.06;;;3.76;99.95
11339;BME280;5724;42.684;23.252;2022-12-31T05:29:22;95512.38;;;3.77;99.23
11339;BME280;5724;42.684;23.252;2022-12-31T05:31:47;95518.00;;;3.81;98.56
11339;BME280;5724;42.684;23.252;2022-12-31T05:34:13;95523.19;;;3.77;97.98
11339;BME280;5724;42.684;23.252;2022-12-31T05:36:38;95527.31;;;3.69;96.49
11339;BME280;5724;42.684;23.252;2022-12-31T05:39:04;95520.97;;;3.55;96.29
11339;BME280;5724;42.684;23.252;2022-12-31T05:41:29;95519.13;;;3.51;95.90
11339;BME280;5724;42.684;23.252;2022-12-31T05:43:54;95524.84;;;3.44;95.91
11339;BME280;5724;42.684;23.252;2022-12-31T05:46:20;95536.25;;;3.41;96.09
11339;BME280;5724;42.684;23.252;2022-12-31T05:48:45;95526.56;;;3.35;96.02
11339;BME280;5724;42.684;23.252;2022-12-31T05:51:11;95528.75;;;3.33;96.62
11339;BME280;5724;42.684;23.252;2022-12-31T05:53:36;95532.31;;;3.28;96.40
11339;BME280;5724;42.684;23.252;2022-12-31T05:56:02;95531.91;;;3.11;98.31
11339;BME280;5724;42.684;23.252;2022-12-31T05:58:27;95534.56;;;3.16;98.44
11339;BME280;5724;42.684;23.252;2022-12-31T06:00:53;95524.03;;;3.14;98.01
11339;BME280;5724;42.684;23.252;2022-12-31T06:03:18;95533.81;;;3.10;99.49
11339;BME280;5724;42.684;23.252;2022-12-31T06:05:44;95545.31;;;3.21;98.90
11339;BME280;5724;42.684;23.252;2022-12-31T06:08:10;95538.78;;;3.27;98.79
11339;BME280;5724;42.684;23.252;2022-12-31T06:10:36;95540.13;;;3.30;98.56
11339;BME280;5724;42.684;23.252;2022-12-31T06:13:02;95542.28;;;3.28;99.09
11339;BME280;5724;42.684;23.252;2022-12-31T06:15:28;95549.25;;;3.34;99.14
11339;BME280;5724;42.684;23.252;2022-12-31T06:17:53;95549.06;;;3.25;99.55
11339;BME280;5724;42.684;23.252;2022-12-31T06:20:18;95550.59;;;3.36;99.86
11339;BME280;5724;42.684;23.252;2022-12-31T06:22:44;95557.28;;;3.44;99.72
11339;BME280;5724;42.684;23.252;2022-12-31T06:25:09;95551.84;;;3.49;99.52
11339;BME280;5724;42.684;23.252;2022-12-31T06:27:35;95572.56;;;3.59;99.14
11339;BME280;5724;42.684;23.252;2022-12-31T06:30:00;95563.09;;;3.56;99.52
11339;BME280;5724;42.684;23.252;2022-12-31T06:32:26;95567.91;;;3.64;99.11
11339;BME280;5724;42.684;23.252;2022-12-31T06:34:51;95570.22;;;3.76;99.07
11339;BME280;5724;42.684;23.252;2022-12-31T06:37:16;95567.16;;;3.88;98.49
11339;BME280;5724;42.684;23.252;2022-12-31T06:39:42;95572.59;;;3.83;98.39
11339;BME280;5724;42.684;23.252;2022-12-31T06:42:07;95579.69;;;4.02;98.44
11339;BME280;5724;42.684;23.252;2022-12-31T06:44:33;95582.56;;;4.11;97.67
11339;BME280;5724;42.684;23.252;2022-12-31T06:46:58;95592.94;;;4.28;97.85
11339;BME280;5724;42.684;23.252;2022-12-31T06:49:24;95597.75;;;4.31;97.61
11339;BME280;5724;42.684;23.252;2022-12-31T06:51:49;95589.47;;;4.46;96.05
11339;BME280;5724;42.684;23.252;2022-12-31T06:54:14;95554.38;;;4.17;95.38
11339;BME280;5724;42.684;23.252;2022-12-31T06:56:40;95601.75;;;4.39;95.16
11339;BME280;5724;42.684;23.252;2022-12-31T06:59:20;95594.28;;;4.49;94.17
11339;BME280;5724;42.684;23.252;2022-12-31T07:02:29;95591.28;;;4.51;94.41
11339;BME280;5724;42.684;23.252;2022-12-31T07:08:13;95595.94;;;4.69;93.60
11339;BME280;5724;42.684;23.252;2022-12-31T07:15:54;95623.56;;;5.09;91.61
11339;BME280;5724;42.684;23.252;2022-12-31T07:20:52;95623.50;;;5.33;91.11
11339;BME280;5724;42.684;23.252;2022-12-31T07:23:18;95621.31;;;5.35;91.34
11339;BME280;5724;42.684;23.252;2022-12-31T07:26:13;95620.47;;;5.53;90.68
11339;BME280;5724;42.684;23.252;2022-12-31T07:28:44;95617.91;;;5.62;89.79
11339;BME280;5724;42.684;23.252;2022-12-31T07:33:59;95626.66;;;5.72;89.23
11339;BME280;5724;42.684;23.252;2022-12-31T07:36:59;95624.94;;;5.95;88.84
11339;BME280;5724;42.684;23.252;2022-12-31T07:39:41;95626.41;;;6.20;87.74
11339;BME280;5724;42.684;23.252;2022-12-31T07:42:29;95628.84;;;6.36;87.12
11339;BME280;5724;42.684;23.252;2022-12-31T07:45:19;95633.78;;;6.61;85.64
11339;BME280;5724;42.684;23.252;2022-12-31T07:47:48;95633.97;;;6.65;85.16
11339;BME280;5724;42.684;23.252;2022-12-31T07:50:16;95641.81;;;6.80;84.71
11339;BME280;5724;42.684;23.252;2022-12-31T07:52:43;95644.94;;;6.87;84.28
11339;BME280;5724;42.684;23.252;2022-12-31T07:55:09;95633.06;;;6.97;82.71
11339;BME280;5724;42.684;23.252;2022-12-31T07:58:00;95643.63;;;6.98;82.38
11339;BME280;5724;42.684;23.252;2022-12-31T08:00:28;95644.72;;;7.11;81.63
11339;BME280;5724;42.684;23.252;2022-12-31T08:06:14;95653.91;;;7.37;79.99
11339;BME280;5724;42.684;23.252;2022-12-31T08:08:57;95651.28;;;7.46;79.09
11339;BME280;5724;42.684;23.252;2022-12-31T08:11:42;95651.53;;;7.58;79.28
11339;BME280;5724;42.684;23.252;2022-12-31T08:14:12;95645.69;;;7.65;78.07
11339;BME280;5724;42.684;23.252;2022-12-31T08:16:38;95651.78;;;7.48;78.01
11339;BME280;5724;42.684;23.252;2022-12-31T08:19:04;95647.34;;;7.74;77.65
11339;BME280;5724;42.684;23.252;2022-12-31T08:24:34;95647.66;;;7.73;78.17
11339;BME280;5724;42.684;23.252;2022-12-31T08:27:10;95651.13;;;7.87;78.28
11339;BME280;5724;42.684;23.252;2022-12-31T08:49:07;95648.63;;;8.84;73.37
11339;BME280;5724;42.684;23.252;2022-12-31T08:51:34;95644.72;;;8.76;73.35
11339;BME280;5724;42.684;23.252;2022-12-31T08:53:59;95645.59;;;8.94;72.35
11339;BME280;5724;42.684;23.252;2022-12-31T08:56:58;95646.91;;;9.05;72.09
11339;BME280;5724;42.684;23.252;2022-12-31T08:59:38;95648.84;;;9.13;71.56
11339;BME280;5724;42.684;23.252;2022-12-31T09:07:03;95644.75;;;9.51;70.82
11339;BME280;5724;42.684;23.252;2022-12-31T09:10:07;95640.25;;;9.63;70.50
11339;BME280;5724;42.684;23.252;2022-12-31T09:15:51;95633.06;;;9.76;68.87
11339;BME280;5724;42.684;23.252;2022-12-31T09:18:18;95629.66;;;9.96;68.68
11339;BME280;5724;42.684;23.252;2022-12-31T09:20:44;95634.94;;;9.93;68.81
11339;BME280;5724;42.684;23.252;2022-12-31T09:23:11;95631.53;;;10.13;68.25
11339;BME280;5724;42.684;23.252;2022-12-31T09:25:44;95623.53;;;10.25;68.00
11339;BME280;5724;42.684;23.252;2022-12-31T09:28:38;95623.34;;;10.30;67.31
11339;BME280;5724;42.684;23.252;2022-12-31T09:31:13;95619.47;;;10.40;67.22
11339;BME280;5724;42.684;23.252;2022-12-31T09:34:05;95612.84;;;10.50;66.90
11339;BME280;5724;42.684;23.252;2022-12-31T09:36:37;95610.59;;;10.52;66.83
11339;BME280;5724;42.684;23.252;2022-12-31T09:39:10;95603.31;;;10.65;66.93
11339;BME280;5724;42.684;23.252;2022-12-31T09:47:53;95583.06;;;10.95;65.48
11339;BME280;5724;42.684;23.252;2022-12-31T10:01:00;95580.69;;;10.55;65.11
11339;BME280;5724;42.684;23.252;2022-12-31T10:14:44;95562.41;;;10.77;65.42
11339;BME280;5724;42.684;23.252;2022-12-31T10:20:07;95557.59;;;11.24;63.45
11339;BME280;5724;42.684;23.252;2022-12-31T10:23:49;95557.13;;;11.22;63.73
11339;BME280;5724;42.684;23.252;2022-12-31T10:26:08;95546.19;;;11.22;64.02
11339;BME280;5724;42.684;23.252;2022-12-31T10:44:40;95549.91;;;11.80;61.68
11339;BME280;5724;42.684;23.252;2022-12-31T10:57:41;95540.00;;;11.67;62.04
11339;BME280;5724;42.684;23.252;2022-12-31T11:17:23;95531.75;;;12.21;60.65
11339;BME280;5724;42.684;23.252;2022-12-31T11:20:16;95520.63;;;11.93;61.11
11339;BME280;5724;42.684;23.252;2022-12-31T11:26:07;95510.69;;;11.88;61.60
11339;BME280;5724;42.684;23.252;2022-12-31T11:31:49;95516.22;;;12.25;60.27
11339;BME280;5724;42.684;23.252;2022-12-31T11:34:34;95515.56;;;12.52;60.14
11339;BME280;5724;42.684;23.252;2022-12-31T11:42:45;95504.28;;;13.31;57.84
11339;BME280;5724;42.684;23.252;2022-12-31T11:53:11;95488.72;;;12.82;58.98
11339;BME280;5724;42.684;23.252;2022-12-31T11:58:16;95493.50;;;12.98;59.45
11339;BME280;5724;42.684;23.252;2022-12-31T12:01:13;95492.84;;;12.76;59.84
11339;BME280;5724;42.684;23.252;2022-12-31T12:03:41;95486.56;;;12.27;61.39
11339;BME280;5724;42.684;23.252;2022-12-31T12:06:12;95495.91;;;12.14;62.01
11339;BME280;5724;42.684;23.252;2022-12-31T12:08:38;95495.88;;;11.89;63.14
11339;BME280;5724;42.684;23.252;2022-12-31T12:11:28;95501.38;;;12.01;62.99
11339;BME280;5724;42.684;23.252;2022-12-31T12:13:52;95499.00;;;12.24;62.75
11339;BME280;5724;42.684;23.252;2022-12-31T12:16:20;95503.25;;;12.58;62.05
11339;BME280;5724;42.684;23.252;2022-12-31T12:18:48;95506.88;;;12.99;61.38
11339;BME280;5724;42.684;23.252;2022-12-31T12:21:24;95505.00;;;13.28;60.62
11339;BME280;5724;42.684;23.252;2022-12-31T12:23:56;95507.88;;;13.19;60.32
11339;BME280;5724;42.684;23.252;2022-12-31T12:26:35;95505.44;;;13.30;59.78
11339;BME280;5724;42.684;23.252;2022-12-31T12:29:15;95503.94;;;13.44;60.30
11339;BME280;5724;42.684;23.252;2022-12-31T12:31:41;95502.50;;;13.79;59.26
11339;BME280;5724;42.684;23.252;2022-12-31T12:34:32;95502.31;;;13.99;58.39
11339;BME280;5724;42.684;23.252;2022-12-31T12:36:58;95501.44;;;14.11;58.33
11339;BME280;5724;42.684;23.252;2022-12-31T12:39:27;95468.47;;;14.11;57.36
11339;BME280;5724;42.684;23.252;2022-12-31T12:42:19;95504.03;;;14.20;57.51
11339;BME280;5724;42.684;23.252;2022-12-31T12:44:44;95499.38;;;14.08;57.44
11339;BME280;5724;42.684;23.252;2022-12-31T12:47:17;95507.03;;;14.30;57.15
11339;BME280;5724;42.684;23.252;2022-12-31T12:49:47;95500.91;;;14.21;57.08
11339;BME280;5724;42.684;23.252;2022-12-31T12:58:51;95509.44;;;13.72;58.28
11339;BME280;5724;42.684;23.252;2022-12-31T13:17:34;95521.34;;;13.36;58.89
11339;BME280;5724;42.684;23.252;2022-12-31T13:25:33;95517.13;;;13.27;59.66
11339;BME280;5724;42.684;23.252;2022-12-31T13:28:04;95534.75;;;13.66;58.75
11339;BME280;5724;42.684;23.252;2022-12-31T13:30:43;95517.16;;;13.83;58.29
11339;BME280;5724;42.684;23.252;2022-12-31T13:33:24;95528.22;;;14.14;57.53
11339;BME280;5724;42.684;23.252;2022-12-31T13:35:56;95522.19;;;14.24;57.05
11339;BME280;5724;42.684;23.252;2022-12-31T13:38:26;95530.19;;;14.29;56.70
11339;BME280;5724;42.684;23.252;2022-12-31T13:43:36;95529.66;;;14.40;56.85
11339;BME280;5724;42.684;23.252;2022-12-31T13:49:11;95539.72;;;14.48;56.07
11339;BME280;5724;42.684;23.252;2022-12-31T13:51:43;95549.56;;;14.49;56.01
11339;BME280;5724;42.684;23.252;2022-12-31T13:54:12;95547.25;;;14.51;56.22
11339;BME280;5724;42.684;23.252;2022-12-31T13:56:44;95547.25;;;14.51;55.93
11339;BME280;5724;42.684;23.252;2022-12-31T13:59:30;95538.00;;;14.43;56.25
11339;BME280;5724;42.684;23.252;2022-12-31T14:02:30;95545.91;;;14.45;56.35
11339;BME280;5724;42.684;23.252;2022-12-31T14:05:25;95539.94;;;14.43;55.93
11339;BME280;5724;42.684;23.252;2022-12-31T14:07:58;95546.16;;;14.40;56.26
11339;BME280;5724;42.684;23.252;2022-12-31T14:10:39;95538.75;;;14.28;56.46
11339;BME280;5724;42.684;23.252;2022-12-31T14:16:44;95547.88;;;14.16;56.63
11339;BME280;5724;42.684;23.252;2022-12-31T14:22:12;95541.53;;;13.84;56.94
11339;BME280;5724;42.684;23.252;2022-12-31T14:24:48;95548.78;;;13.77;56.98
11339;BME280;5724;42.684;23.252;2022-12-31T14:27:46;95542.88;;;13.62;57.17
11339;BME280;5724;42.684;23.252;2022-12-31T14:30:19;95544.97;;;13.41;57.83
11339;BME280;5724;42.684;23.252;2022-12-31T14:32:56;95537.50;;;13.26;58.23
11339;BME280;5724;42.684;23.252;2022-12-31T14:54:42;95529.09;;;12.00;63.07
11339;BME280;5724;42.684;23.252;2022-12-31T14:57:37;95537.81;;;11.81;63.83
11339;BME280;5724;42.684;23.252;2022-12-31T15:00:37;95532.16;;;11.44;65.11
11339;BME280;5724;42.684;23.252;2022-12-31T15:03:23;95544.84;;;11.28;65.89
11339;BME280;5724;42.684;23.252;2022-12-31T15:14:42;95549.63;;;10.89;67.56
11339;BME280;5724;42.684;23.252;2022-12-31T15:17:41;95537.84;;;10.68;68.12
11339;BME280;5724;42.684;23.252;2022-12-31T15:22:48;95568.56;;;10.65;68.59
11339;BME280;5724;42.684;23.252;2022-12-31T15:27:49;95556.59;;;10.49;69.51
11339;BME280;5724;42.684;23.252;2022-12-31T15:32:55;95578.34;;;10.19;71.10
11339;BME280;5724;42.684;23.252;2022-12-31T15:38:02;95566.34;;;10.03;71.76
11339;BME280;5724;42.684;23.252;2022-12-31T15:40:28;95568.78;;;9.96;72.21
11339;BME280;5724;42.684;23.252;2022-12-31T15:43:03;95562.88;;;9.85;72.85
11339;BME280;5724;42.684;23.252;2022-12-31T15:45:38;95567.84;;;9.74;73.24
11339;BME280;5724;42.684;23.252;2022-12-31T15:48:15;95505.31;;;9.26;73.63
11339;BME280;5724;42.684;23.252;2022-12-31T15:50:43;95562.56;;;9.52;73.58
11339;BME280;5724;42.684;23.252;2022-12-31T15:53:22;95562.91;;;9.42;73.90
11339;BME280;5724;42.684;23.252;2022-12-31T15:55:52;95567.56;;;9.33;74.33
11339;BME280;5724;42.684;23.252;2022-12-31T15:58:22;95572.19;;;9.06;74.73
11339;BME280;5724;42.684;23.252;2022-12-31T16:03:24;95584.03;;;8.93;74.20
11339;BME280;5724;42.684;23.252;2022-12-31T16:05:51;95588.81;;;8.87;73.97
11339;BME280;5724;42.684;23.252;2022-12-31T16:08:21;95581.59;;;8.83;74.23
11339;BME280;5724;42.684;23.252;2022-12-31T16:10:48;95584.19;;;8.79;73.84
11339;BME280;5724;42.684;23.252;2022-12-31T16:13:19;95597.19;;;8.91;73.87
11339;BME280;5724;42.684;23.252;2022-12-31T16:15:52;95596.06;;;8.92;74.86
11339;BME280;5724;42.684;23.252;2022-12-31T16:18:22;95605.69;;;8.98;74.80
11339;BME280;5724;42.684;23.252;2022-12-31T16:20:47;95612.78;;;9.08;74.56
11339;BME280;5724;42.684;23.252;2022-12-31T16:23:24;95609.91;;;9.22;74.14
11339;BME280;5724;42.684;23.252;2022-12-31T16:25:54;95610.88;;;9.17;73.64
11339;BME280;5724;42.684;23.252;2022-12-31T16:28:28;95624.78;;;9.15;72.73
11339;BME280;5724;42.684;23.252;2022-12-31T16:31:01;95623.50;;;9.04;72.90
11339;BME280;5724;42.684;23.252;2022-12-31T16:33:27;95608.41;;;8.89;72.62
11339;BME280;5724;42.684;23.252;2022-12-31T16:35:54;95631.16;;;8.94;72.80
11339;BME280;5724;42.684;23.252;2022-12-31T16:38:20;95635.19;;;8.96;72.79
11339;BME280;5724;42.684;23.252;2022-12-31T16:46:27;95630.69;;;8.92;72.80
11339;BME280;5724;42.684;23.252;2022-12-31T16:48:58;95644.16;;;8.88;73.03
11339;BME280;5724;42.684;23.252;2022-12-31T16:51:29;95647.50;;;8.85;73.54
11339;BME280;5724;42.684;23.252;2022-12-31T16:53:57;95653.09;;;8.80;73.98
11339;BME280;5724;42.684;23.252;2022-12-31T16:56:35;95642.78;;;8.68;74.84
11339;BME280;5724;42.684;23.252;2022-12-31T16:59:26;95651.28;;;8.67;74.92
11339;BME280;5724;42.684;23.252;2022-12-31T17:01:53;95655.34;;;8.47;75.90
11339;BME280;5724;42.684;23.252;2022-12-31T17:04:22;95649.59;;;8.48;75.67
11339;BME280;5724;42.684;23.252;2022-12-31T17:06:48;95653.09;;;8.40;75.54
11339;BME280;5724;42.684;23.252;2022-12-31T17:09:21;95658.94;;;8.33;75.69
11339;BME280;5724;42.684;23.252;2022-12-31T17:11:57;95664.34;;;8.25;75.60
11339;BME280;5724;42.684;23.252;2022-12-31T17:14:46;95668.19;;;8.24;75.51
11339;BME280;5724;42.684;23.252;2022-12-31T17:17:21;95667.69;;;8.22;76.09
11339;BME280;5724;42.684;23.252;2022-12-31T17:19:50;95672.38;;;8.08;76.68
11339;BME280;5724;42.684;23.252;2022-12-31T17:22:40;95670.41;;;7.99;77.28
11339;BME280;5724;42.684;23.252;2022-12-31T17:25:17;95665.47;;;8.01;77.46
11339;BME280;5724;42.684;23.252;2022-12-31T17:30:43;95677.28;;;7.97;77.63
11339;BME280;5724;42.684;23.252;2022-12-31T17:35:47;95685.03;;;8.03;77.46
11339;BME280;5724;42.684;23.252;2022-12-31T17:41:01;95679.75;;;8.07;77.24
11339;BME280;5724;42.684;23.252;2022-12-31T17:43:30;95676.22;;;8.07;77.08
11339;BME280;5724;42.684;23.252;2022-12-31T17:45:57;95681.00;;;8.01;77.22
11339;BME280;5724;42.684;23.252;2022-12-31T17:48:23;95670.28;;;8.04;77.12
11339;BME280;5724;42.684;23.252;2022-12-31T17:50:59;95676.13;;;8.12;77.14